Mobile Site You Are Here >  >  >  > Brandon Nimmo 2013 Minor League Gamelogs & Splits


Brandon Nimmo

Brandon T. Nimmo (twitter: @You_Found_Nimmo)

Position: Centerfielder
Bats: Left, Throws: Right
Height: 6' 3", Weight: 205 lb.

Born: March 27, 1993 in Cheyenne, Wyoming, US
High School: East HS (Cheyenne, WY)

Drafted by the New York Mets in the 1st round (13th) of the 2011 MLB June Amateur Draft from East HS (Cheyenne, WY).

Brandon Nimmo
/ Gamelogs & Splits
 Batting: 2014 / 2013 / 2012 / 2011

2013 Player Batting Gamelog

Rk Date Lev Tm   Opp PA AB R H 2B 3B HR RBI BB IBB SO HBP SH SF GDP SB CS Pos E
1 2013-04-04 A-SALL Savannah Sand Gnats Rome Braves 4 3 1 2 0 0 0 0 1 0 0 0 0 0 0 0 0 CF 0
2 2013-04-05 A-SALL Savannah Sand Gnats Rome Braves 6 6 1 2 0 1 0 2 0 0 3 0 0 0 0 0 0 CF 0
3 2013-04-06 A-SALL Savannah Sand Gnats @ Rome Braves 4 4 1 1 0 0 0 0 0 0 0 0 0 0 0 1 0 CF 0
4 2013-04-07 A-SALL Savannah Sand Gnats @ Rome Braves 5 4 2 3 1 0 0 0 1 0 0 0 0 0 0 0 0 CF 0
5 2013-04-08 A-SALL Savannah Sand Gnats Augusta GreenJackets 5 4 1 2 0 0 0 1 1 0 1 0 0 0 0 0 0 CF 0
6 2013-04-09 A-SALL Savannah Sand Gnats Augusta GreenJackets 5 3 2 0 0 0 0 1 1 0 1 1 0 0 0 0 0 CF 0
7 2013-04-10 A-SALL Savannah Sand Gnats Augusta GreenJackets 5 5 0 1 0 0 0 0 0 0 2 0 0 0 0 0 0 CF 0
8 2013-04-12 A-SALL Savannah Sand Gnats @ Rome Braves 4 3 1 2 0 0 0 0 1 0 0 0 0 0 0 0 0 CF 0
9 2013-04-13 A-SALL Savannah Sand Gnats Rome Braves 4 1 2 0 0 0 0 1 0 0 0 2 0 1 0 0 0 CF 0
10 2013-04-14 A-SALL Savannah Sand Gnats Rome Braves 4 4 0 2 0 0 0 0 0 0 1 0 0 0 0 0 1 CF 0
11 2013-04-15 A-SALL Savannah Sand Gnats @ Greensboro Grasshoppers 5 5 1 3 0 0 1 5 0 0 0 0 0 0 0 0 0 CF 0
12 2013-04-16 A-SALL Savannah Sand Gnats @ Greensboro Grasshoppers 5 5 1 3 0 0 0 0 0 0 1 0 0 0 0 0 0 CF 0
13 2013-04-17 A-SALL Savannah Sand Gnats @ Greensboro Grasshoppers 5 5 1 2 0 0 0 0 0 0 1 0 0 0 0 0 0 CF 0
14 2013-04-18 A-SALL Savannah Sand Gnats @ Lakewood BlueClaws 4 4 0 0 0 0 0 0 0 0 2 0 0 0 0 0 0 CF 0
15 2013-04-19 A-SALL Savannah Sand Gnats @ Lakewood BlueClaws 5 4 2 4 0 1 0 0 1 0 0 0 0 0 0 0 0 CF 0
16 2013-04-20 A-SALL Savannah Sand Gnats @ Lakewood BlueClaws 5 3 2 1 0 1 0 0 2 0 1 0 0 0 0 0 0 CF 0
17 2013-04-21 A-SALL Savannah Sand Gnats @ Lakewood BlueClaws 5 3 0 0 0 0 0 1 2 0 1 0 0 0 0 1 0 CF 0
18 2013-04-23 A-SALL Savannah Sand Gnats Delmarva Shorebirds 5 4 2 1 0 0 0 0 1 0 2 0 0 0 0 0 0 CF 0
19 2013-04-24 A-SALL Savannah Sand Gnats Delmarva Shorebirds 5 4 1 0 0 0 0 0 1 1 3 0 0 0 0 0 0 CF 0
20 2013-04-25 A-SALL Savannah Sand Gnats Delmarva Shorebirds 5 5 0 0 0 0 0 0 0 0 1 0 0 0 0 0 0 CF 0
21 2013-04-27 A-SALL Savannah Sand Gnats West Virginia Power 3 3 0 0 0 0 0 0 0 0 1 0 0 0 0 0 0 CF 0
22 2013-04-28 A-SALL Savannah Sand Gnats West Virginia Power 5 4 1 0 0 0 0 0 0 0 2 1 0 0 0 0 0 CF 0
23 2013-04-29 A-SALL Savannah Sand Gnats West Virginia Power 4 4 0 0 0 0 0 0 0 0 1 0 0 0 0 0 0 CF 0
24 2013-05-28 A-SALL Savannah Sand Gnats @ Greenville Drive 5 5 0 0 0 0 0 0 0 0 1 0 0 0 0 0 0 CF 0
25 2013-05-29 A-SALL Savannah Sand Gnats @ Greenville Drive 4 2 0 0 0 0 0 0 2 0 2 0 0 0 0 0 1 CF 0
26 2013-05-30 A-SALL Savannah Sand Gnats @ Kannapolis Intimidators 5 5 1 2 0 0 0 0 0 0 2 0 0 0 1 0 0 CF 0
27 2013-05-31 A-SALL Savannah Sand Gnats @ Kannapolis Intimidators 4 4 0 1 0 0 0 1 0 0 2 0 0 0 0 0 0 CF 0
28 2013-06-01 A-SALL Savannah Sand Gnats @ Kannapolis Intimidators 4 4 1 1 1 0 0 1 0 0 0 0 0 0 0 0 0 CF 0
29 2013-06-02 A-SALL Savannah Sand Gnats @ Kannapolis Intimidators 5 5 0 2 1 0 0 1 0 0 2 0 0 0 0 0 0 CF 0
30 2013-06-04 A-SALL Savannah Sand Gnats Lexington Legends 5 3 0 2 0 0 0 2 2 0 0 0 0 0 0 0 0 CF 1
31 2013-06-05 A-SALL Savannah Sand Gnats Lexington Legends 4 4 0 0 0 0 0 0 0 0 1 0 0 0 1 0 0 CF 0
32 2013-06-07 A-SALL Savannah Sand Gnats @ Rome Braves 5 4 1 1 0 1 0 1 0 0 2 1 0 0 0 0 0 CF 0
33 2013-06-08 A-SALL Savannah Sand Gnats @ Rome Braves 4 4 1 1 0 0 0 0 0 0 3 0 0 0 0 0 0 CF 0
34 2013-06-08 (2) A-SALL Savannah Sand Gnats @ Rome Braves 3 2 0 1 0 0 0 0 0 0 0 0 1 0 0 0 0 CF 0
35 2013-06-09 A-SALL Savannah Sand Gnats @ Rome Braves 5 4 1 3 1 0 0 1 1 0 1 0 0 0 0 0 1 CF 0
36 2013-06-11 A-SALL Savannah Sand Gnats Asheville Tourists 4 4 0 1 0 0 0 0 0 0 0 0 0 0 0 0 0 CF 0
37 2013-06-11 (2) A-SALL Savannah Sand Gnats Asheville Tourists 5 3 0 0 0 0 0 1 2 0 1 0 0 0 0 0 0 CF 0
38 2013-06-12 A-SALL Savannah Sand Gnats Asheville Tourists 5 2 0 0 0 0 0 0 2 0 1 1 0 0 0 0 0 CF 1
39 2013-06-13 A-SALL Savannah Sand Gnats Greenville Drive 5 5 1 1 0 1 0 1 0 0 2 0 0 0 0 0 0 CF 0
40 2013-06-14 A-SALL Savannah Sand Gnats Greenville Drive 6 4 0 1 1 0 0 1 1 0 1 0 0 1 0 0 0 CF 0
41 2013-06-15 A-SALL Savannah Sand Gnats Greenville Drive 4 4 1 1 1 0 0 0 0 0 2 0 0 0 1 0 0 CF 0
42 2013-06-16 A-SALL Savannah Sand Gnats Greenville Drive 5 4 2 2 0 0 0 0 1 0 1 0 0 0 0 0 0 CF 0
43 2013-06-20 A-SALL Savannah Sand Gnats @ Lexington Legends 5 5 0 0 0 0 0 0 0 0 2 0 0 0 0 0 0 CF 0
44 2013-06-21 A-SALL Savannah Sand Gnats @ Lexington Legends 4 3 0 1 0 0 0 0 1 0 1 0 0 0 0 0 0 CF 0
45 2013-06-22 A-SALL Savannah Sand Gnats @ Lexington Legends 4 4 0 1 0 0 0 0 0 0 1 0 0 0 0 0 0 CF 0
46 2013-06-23 A-SALL Savannah Sand Gnats @ Lexington Legends 5 5 0 0 0 0 0 0 0 0 3 0 0 0 0 0 0 CF 0
47 2013-06-24 A-SALL Savannah Sand Gnats @ Augusta GreenJackets 4 3 0 0 0 0 0 0 1 0 2 0 0 0 0 0 0 CF 0
48 2013-06-26 A-SALL Savannah Sand Gnats @ Augusta GreenJackets 5 5 0 0 0 0 0 0 0 0 2 0 0 0 0 0 0 CF 0
49 2013-06-27 A-SALL Savannah Sand Gnats Rome Braves 5 3 2 1 0 0 0 0 2 0 2 0 0 0 0 1 0 CF 0
50 2013-06-28 A-SALL Savannah Sand Gnats Rome Braves 4 4 0 0 0 0 0 1 0 0 2 0 0 0 0 0 0 CF 0
51 2013-06-29 A-SALL Savannah Sand Gnats Rome Braves 4 3 1 1 0 0 0 0 1 0 1 0 0 0 0 0 0 CF 0
52 2013-06-30 A-SALL Savannah Sand Gnats Rome Braves 5 5 1 3 0 0 0 0 0 0 1 0 0 0 0 1 0 CF 0
53 2013-07-01 A-SALL Savannah Sand Gnats Hickory Crawdads 4 4 0 0 0 0 0 0 0 0 2 0 0 0 0 0 0 CF 0
54 2013-07-02 A-SALL Savannah Sand Gnats Hickory Crawdads 4 4 0 1 0 0 0 1 0 0 0 0 0 0 0 0 0 CF 0
55 2013-07-03 A-SALL Savannah Sand Gnats Hickory Crawdads 4 4 0 0 0 0 0 0 0 0 4 0 0 0 0 0 0 CF 0
56 2013-07-05 A-SALL Savannah Sand Gnats @ Greenville Drive 5 3 0 0 0 0 0 0 2 0 3 0 0 0 0 0 0 CF 0
57 2013-07-06 A-SALL Savannah Sand Gnats @ Greenville Drive 0 0 1 0 0 0 0 0 0 0 0 0 0 0 0 0 0 0
58 2013-07-06 (2) A-SALL Savannah Sand Gnats @ Greenville Drive 3 2 0 1 1 0 0 0 1 0 1 0 0 0 0 0 0 CF 0
59 2013-07-07 A-SALL Savannah Sand Gnats @ Greenville Drive 5 5 1 1 1 0 0 0 0 0 2 0 0 0 1 0 0 CF 0
60 2013-07-09 A-SALL Savannah Sand Gnats Augusta GreenJackets 5 3 2 1 0 0 0 0 1 0 1 1 0 0 0 0 0 CF 0
61 2013-07-10 A-SALL Savannah Sand Gnats Augusta GreenJackets 4 3 0 0 0 0 0 0 1 0 2 0 0 0 0 0 0 CF 0
62 2013-07-11 A-SALL Savannah Sand Gnats Augusta GreenJackets 4 4 0 1 0 0 0 0 0 0 2 0 0 0 0 0 0 CF 0
63 2013-07-15 A-SALL Savannah Sand Gnats Greenville Drive 4 4 1 0 0 0 0 0 0 0 1 0 0 0 0 0 0 CF 0
64 2013-07-17 A-SALL Savannah Sand Gnats @ West Virginia Power 5 4 0 0 0 0 0 0 1 0 1 0 0 0 0 0 0 CF 0
65 2013-07-18 A-SALL Savannah Sand Gnats @ West Virginia Power 5 4 0 2 0 0 0 1 1 0 2 0 0 0 0 0 0 CF 1
66 2013-07-20 A-SALL Savannah Sand Gnats @ Delmarva Shorebirds 5 5 1 3 0 1 0 0 0 0 1 0 0 0 0 0 0 CF 0
67 2013-07-21 A-SALL Savannah Sand Gnats @ Delmarva Shorebirds 5 4 0 0 0 0 0 0 1 0 1 0 0 0 1 0 0 CF 0
68 2013-07-22 A-SALL Savannah Sand Gnats @ Delmarva Shorebirds 6 4 0 1 0 0 0 0 1 0 3 1 0 0 0 0 0 CF 0
69 2013-07-23 A-SALL Savannah Sand Gnats @ Delmarva Shorebirds 3 3 0 2 0 0 0 0 0 0 1 0 0 0 0 0 0 CF 0
70 2013-07-26 A-SALL Savannah Sand Gnats Augusta GreenJackets 5 5 0 1 0 0 0 1 0 0 3 0 0 0 0 0 0 CF 0
71 2013-07-27 A-SALL Savannah Sand Gnats Augusta GreenJackets 4 3 1 1 0 0 0 0 1 0 2 0 0 0 0 0 0 CF 0
72 2013-07-27 (2) A-SALL Savannah Sand Gnats Augusta GreenJackets 3 2 1 0 0 0 0 0 1 0 0 0 0 0 0 0 0 CF 0
73 2013-07-28 A-SALL Savannah Sand Gnats Augusta GreenJackets 4 2 0 0 0 0 0 0 2 0 0 0 0 0 0 0 0 CF 0
74 2013-07-29 A-SALL Savannah Sand Gnats @ Asheville Tourists 5 5 1 1 1 0 0 0 0 0 2 0 0 0 0 0 0 CF 0
75 2013-07-30 A-SALL Savannah Sand Gnats @ Asheville Tourists 5 4 2 2 1 0 0 1 1 0 0 0 0 0 0 0 0 CF 1
76 2013-07-31 A-SALL Savannah Sand Gnats @ Asheville Tourists 5 4 0 0 0 0 0 0 1 0 1 0 0 0 0 0 0 CF 0
77 2013-08-01 A-SALL Savannah Sand Gnats @ Greenville Drive 5 4 0 1 0 0 0 0 1 0 1 0 0 0 0 0 0 CF 0
78 2013-08-02 A-SALL Savannah Sand Gnats @ Greenville Drive 5 1 1 0 0 0 0 2 4 0 0 0 0 0 0 0 0 CF 0
79 2013-08-03 A-SALL Savannah Sand Gnats @ Greenville Drive 5 4 0 0 0 0 0 0 1 0 3 0 0 0 0 0 0 CF 1
80 2013-08-04 A-SALL Savannah Sand Gnats @ Greenville Drive 5 3 0 1 0 0 0 0 2 0 1 0 0 0 0 0 0 CF 0
81 2013-08-05 A-SALL Savannah Sand Gnats Charleston RiverDogs 4 4 1 3 1 0 1 2 0 0 0 0 0 0 0 0 0 CF 0
82 2013-08-06 A-SALL Savannah Sand Gnats Charleston RiverDogs 3 3 0 0 0 0 0 0 0 0 2 0 0 0 0 0 0 CF 0
83 2013-08-07 A-SALL Savannah Sand Gnats Charleston RiverDogs 5 5 1 3 1 0 0 2 0 0 1 0 0 0 0 0 0 CF 0
84 2013-08-08 A-SALL Savannah Sand Gnats Hickory Crawdads 5 5 1 3 0 0 0 1 0 0 1 0 0 0 0 0 0 CF 0
85 2013-08-09 A-SALL Savannah Sand Gnats Hickory Crawdads 5 5 0 2 0 0 0 0 0 0 1 0 0 0 0 1 0 CF 0
86 2013-08-10 A-SALL Savannah Sand Gnats Hickory Crawdads 4 3 0 1 0 0 0 0 0 0 1 1 0 0 0 0 0 CF 0
87 2013-08-11 A-SALL Savannah Sand Gnats Hickory Crawdads 4 2 0 0 0 0 0 0 1 0 1 1 0 0 0 0 0 CF 0
88 2013-08-13 A-SALL Savannah Sand Gnats @ Rome Braves 4 2 0 1 0 0 0 0 2 0 1 0 0 0 0 0 0 CF 0
89 2013-08-14 A-SALL Savannah Sand Gnats @ Rome Braves 4 3 0 1 1 0 0 0 1 0 1 0 0 0 0 0 0 CF 0
90 2013-08-15 A-SALL Savannah Sand Gnats @ Rome Braves 4 3 1 0 0 0 0 0 1 0 0 0 0 0 1 0 0 CF 1
91 2013-08-18 A-SALL Savannah Sand Gnats @ Augusta GreenJackets 4 4 1 1 0 0 0 1 0 0 2 0 0 0 0 0 0 CF 0
92 2013-08-18 (2) A-SALL Savannah Sand Gnats @ Augusta GreenJackets 4 2 1 2 1 0 0 2 2 0 0 0 0 0 0 0 1 CF 0
93 2013-08-19 A-SALL Savannah Sand Gnats @ Augusta GreenJackets 3 0 1 0 0 0 0 0 3 0 0 0 0 0 0 0 1 CF 0
94 2013-08-19 (2) A-SALL Savannah Sand Gnats @ Augusta GreenJackets 3 3 0 2 0 0 0 0 0 0 1 0 0 0 0 0 0 0
95 2013-08-20 A-SALL Savannah Sand Gnats @ Kannapolis Intimidators 5 5 1 3 0 0 0 2 0 0 1 0 0 0 0 0 0 CF 0
96 2013-08-21 A-SALL Savannah Sand Gnats @ Kannapolis Intimidators 4 3 0 2 0 0 0 0 1 0 0 0 0 0 0 0 0 CF 0
97 2013-08-22 A-SALL Savannah Sand Gnats @ Kannapolis Intimidators 4 4 0 0 0 0 0 0 0 0 1 0 0 0 0 0 0 CF 0
98 2013-08-23 A-SALL Savannah Sand Gnats West Virginia Power 4 3 0 0 0 0 0 0 1 0 2 0 0 0 0 1 0 CF 0
99 2013-08-24 A-SALL Savannah Sand Gnats West Virginia Power 4 2 0 1 0 0 0 0 2 0 1 0 0 0 0 0 0 CF 0
100 2013-08-24 (2) A-SALL Savannah Sand Gnats West Virginia Power 4 3 0 1 1 0 0 2 1 0 1 0 0 0 0 0 0 CF 0
101 2013-08-25 A-SALL Savannah Sand Gnats West Virginia Power 4 3 1 0 0 0 0 0 1 0 1 0 0 0 0 0 0 0
102 2013-08-27 A-SALL Savannah Sand Gnats @ Rome Braves 4 4 0 1 0 0 0 0 0 0 0 0 0 0 0 2 0 CF 0
103 2013-08-28 A-SALL Savannah Sand Gnats @ Rome Braves 5 5 0 1 0 0 0 0 0 0 2 0 0 0 1 0 0 CF 0
104 2013-08-29 A-SALL Savannah Sand Gnats @ Rome Braves 5 4 1 0 0 0 0 0 1 0 0 0 0 0 0 0 0 CF 1
105 2013-08-30 A-SALL Savannah Sand Gnats Greenville Drive 3 2 1 0 0 0 0 0 1 0 0 0 0 0 0 0 0 CF 0
106 2013-08-30 (2) A-SALL Savannah Sand Gnats Greenville Drive 3 3 1 1 1 0 0 0 0 0 2 0 0 0 0 0 0 0
107 2013-08-31 A-SALL Savannah Sand Gnats Greenville Drive 3 3 0 1 0 0 0 0 0 0 1 0 0 0 0 0 0 CF 0
108 2013-08-31 (2) A-SALL Savannah Sand Gnats Greenville Drive 3 2 2 1 0 0 0 0 1 0 0 0 0 0 0 0 0 CF 0
109 2013-09-01 A-SALL Savannah Sand Gnats Greenville Drive 4 3 1 1 0 0 0 0 0 0 0 1 0 0 0 1 0 CF 0
110 2013-09-02 A-SALL Savannah Sand Gnats Greenville Drive 4 3 0 0 0 0 0 0 1 0 2 0 0 0 0 1 0 CF 0

2013 Player Batting Splits

Split G PA AB R H 2B 3B HR RBI SB CS BB SO BA OBP SLG OPS TB GDP HBP SH SF IBB
Total 110 480 395 62 108 16 6 2 40 10 5 71 131 .273 .397 .359 .756 142 7 11 1 2 1
Home 54 232 190 33 46 6 2 1 20 6 1 31 67 .242 .371 .311 .681 59 2 9 0 2 1
Away 56 248 205 29 62 10 4 1 20 4 4 40 64 .302 .421 .405 .826 83 5 2 1 0 0
vs RHP as LHB 104 367 299 85 12 6 2 31 56 102 .284 .410 .385 .794 115 6 9 1 2 1
vs LHP as LHB 54 113 96 23 4 0 0 9 15 29 .240 .354 .281 .635 27 1 2 0 0 0
April 23 107 90 22 29 1 3 1 11 2 1 12 24 .322 .421 .433 .854 39 0 4 0 1 1
May 4 18 16 1 3 0 0 0 1 0 1 2 7 .188 .278 .188 .465 3 1 0 0 0 0
June 25 114 96 12 24 5 2 0 10 2 1 14 34 .250 .354 .344 .698 33 2 2 1 1 0
July 24 102 85 11 18 4 1 0 4 0 0 15 35 .212 .343 .282 .625 24 2 2 0 0 0
August 32 131 102 15 33 6 0 1 14 4 2 27 29 .324 .473 .412 .885 42 2 2 0 0 0
September 2 8 6 1 1 0 0 0 0 2 0 1 2 .167 .375 .167 .542 1 0 1 0 0 0
2 outs, RISP 58 72 58 13 3 1 1 18 12 20 .224 .375 .362 .737 21 0 2 0 0 0
vs. Younger Pitchers 28 72 57 12 1 2 0 2 11 21 .211 .375 .298 .673 17 2 4 0 0 0
vs. Older Pitchers 106 394 326 93 15 4 2 38 59 107 .285 .404 .374 .778 122 4 7 0 2 1
Please note that splits include both major and minor league stats. We have decided that the splits across all levels is more useful than just minor league stats.

About the Minor League Data

Performance data on minor and international leagues is licensed from and provided by the SABR Minor Leagues Database, a community project sponsored by the Minor Leagues Committee of the Society for American Baseball Research.

The database is under active development. Many statistics are incomplete due to ongoing research and/or limitations in published sources. To learn more about these limitations, or to find out how to contribute, click here.

Minor league Total Zone (Rctch&Rtz, 2005-2009) data provided by Baseballprojection.com and Minorleaguesplits.com.